createdAt,value
2022-09-28T00:01:16.989Z,12.80
2022-09-28T00:03:46.823Z,12.70
2022-09-28T00:06:16.982Z,12.70
2022-09-28T00:08:44.850Z,12.70
2022-09-28T00:11:15.707Z,12.70
2022-09-28T00:13:47.681Z,12.70
2022-09-28T00:16:17.978Z,12.70
2022-09-28T00:18:46.345Z,12.60
2022-09-28T00:21:16.577Z,12.60
2022-09-28T00:24:03.072Z,12.60
2022-09-28T00:26:33.354Z,12.60
2022-09-28T00:29:02.707Z,12.60
2022-09-28T00:31:34.938Z,12.70
2022-09-28T00:34:05.018Z,12.60
2022-09-28T00:36:33.639Z,12.70
2022-09-28T00:39:08.283Z,12.70
2022-09-28T00:41:36.262Z,12.70
2022-09-28T00:44:22.982Z,12.70
2022-09-28T00:47:00.110Z,12.70
2022-09-28T00:49:43.470Z,12.70
2022-09-28T00:52:20.084Z,12.70
2022-09-28T00:54:53.809Z,12.70
2022-09-28T00:57:25.932Z,12.70
2022-09-28T00:59:53.558Z,12.70
2022-09-28T01:02:21.957Z,12.80
2022-09-28T01:04:50.637Z,12.70
2022-09-28T01:07:22.001Z,12.80
2022-09-28T01:09:51.401Z,12.80
2022-09-28T01:12:19.221Z,12.80
2022-09-28T01:14:48.549Z,12.70
2022-09-28T01:17:21.140Z,12.80
2022-09-28T01:20:12.126Z,12.80
2022-09-28T01:23:09.591Z,12.80
2022-09-28T01:25:51.005Z,12.80
2022-09-28T01:28:24.640Z,12.80
2022-09-28T01:31:27.744Z,12.80
2022-09-28T01:34:01.367Z,12.80
2022-09-28T01:36:37.069Z,12.80
2022-09-28T01:39:11.243Z,12.80
2022-09-28T01:41:43.398Z,12.80
2022-09-28T01:44:15.128Z,12.80
2022-09-28T01:46:47.171Z,12.80
2022-09-28T01:49:25.189Z,12.80
2022-09-28T01:52:10.963Z,12.80
2022-09-28T01:55:11.478Z,12.80
2022-09-28T01:58:04.756Z,12.80
2022-09-28T02:00:34.646Z,12.80
2022-09-28T02:03:18.503Z,12.80
2022-09-28T02:06:02.764Z,12.80
2022-09-28T02:08:34.272Z,12.80
2022-09-28T02:11:06.433Z,12.80
2022-09-28T02:13:43.445Z,12.80
2022-09-28T02:16:40.630Z,12.80
2022-09-28T02:19:41.556Z,12.80
2022-09-28T02:22:15.769Z,12.80
2022-09-28T02:24:53.095Z,12.80
2022-09-28T02:27:36.583Z,12.80
2022-09-28T02:30:07.940Z,12.80
2022-09-28T02:32:40.502Z,12.80
2022-09-28T02:35:14.516Z,12.80
2022-09-28T02:37:42.136Z,12.80
2022-09-28T02:40:20.163Z,12.80
2022-09-28T02:43:07.034Z,12.80
2022-09-28T02:45:53.617Z,12.80
2022-09-28T02:48:55.740Z,12.80
2022-09-28T02:51:55.232Z,12.80
2022-09-28T02:54:28.904Z,12.80
2022-09-28T02:57:07.255Z,12.80
2022-09-28T02:59:46.760Z,12.80
2022-09-28T03:02:20.691Z,12.80
2022-09-28T03:05:16.380Z,12.80
2022-09-28T03:08:13.056Z,12.80
2022-09-28T03:10:46.761Z,12.80
2022-09-28T03:13:17.127Z,12.80
2022-09-28T03:15:48.667Z,12.80
2022-09-28T03:18:17.370Z,12.80
2022-09-28T03:20:45.192Z,12.80
2022-09-28T03:23:24.281Z,12.80
2022-09-28T03:25:53.148Z,12.80
2022-09-28T03:28:21.602Z,12.80
2022-09-28T03:30:50.265Z,12.80
2022-09-28T03:33:19.910Z,12.80
2022-09-28T03:35:48.967Z,12.70
2022-09-28T03:38:18.527Z,12.70
2022-09-28T03:40:58.242Z,12.70
2022-09-28T03:43:27.178Z,12.70
2022-09-28T03:46:00.161Z,12.70
2022-09-28T03:48:32.716Z,12.70
2022-09-28T03:51:03.368Z,12.60
2022-09-28T03:53:31.409Z,12.70
2022-09-28T03:56:06.383Z,12.70
2022-09-28T03:58:35.176Z,12.60
2022-09-28T04:01:05.357Z,12.60
2022-09-28T04:03:33.752Z,12.60
2022-09-28T04:06:01.991Z,12.60
2022-09-28T04:08:29.988Z,12.60
2022-09-28T04:10:58.886Z,12.60
2022-09-28T04:13:29.024Z,12.70
2022-09-28T04:15:59.300Z,12.70
2022-09-28T04:18:30.324Z,12.60
2022-09-28T04:21:20.754Z,12.60
2022-09-28T04:23:54.826Z,12.60
2022-09-28T04:26:24.764Z,12.60
2022-09-28T04:29:17.386Z,12.60
2022-09-28T04:32:01.511Z,12.50
2022-09-28T04:34:43.177Z,12.50
2022-09-28T04:37:12.398Z,12.50
2022-09-28T04:39:44.025Z,12.50
2022-09-28T04:42:17.300Z,12.50
2022-09-28T04:44:45.454Z,12.50
2022-09-28T04:47:13.427Z,12.50
2022-09-28T04:50:00.434Z,12.50
2022-09-28T04:52:39.973Z,12.50
2022-09-28T04:55:09.616Z,12.40
2022-09-28T04:57:37.245Z,12.40
2022-09-28T05:00:06.041Z,12.40
2022-09-28T05:02:40.252Z,12.40
2022-09-28T05:05:46.541Z,12.40
2022-09-28T05:08:36.859Z,12.30
2022-09-28T05:11:11.549Z,12.20
2022-09-28T05:13:49.004Z,12.20
2022-09-28T05:16:18.251Z,12.10
2022-09-28T05:19:06.412Z,12.10
2022-09-28T05:21:34.451Z,12.10
2022-09-28T05:24:07.578Z,12.00
2022-09-28T05:26:40.696Z,12.10
2022-09-28T05:29:10.772Z,12.00
2022-09-28T05:31:41.759Z,12.00
2022-09-28T05:34:18.026Z,12.00
2022-09-28T05:36:46.759Z,12.00
2022-09-28T05:39:14.343Z,12.00
2022-09-28T05:41:42.019Z,11.90
2022-09-28T05:44:10.041Z,11.90
2022-09-28T05:46:37.982Z,11.90
2022-09-28T05:49:05.578Z,11.90
2022-09-28T05:51:33.508Z,11.80
2022-09-28T05:54:05.653Z,11.80
2022-09-28T05:56:35.494Z,11.80
2022-09-28T05:59:06.323Z,11.80
2022-09-28T06:01:34.134Z,11.80
2022-09-28T06:04:03.240Z,11.80
2022-09-28T06:06:34.970Z,11.80
2022-09-28T06:09:02.608Z,11.80
2022-09-28T06:11:55.567Z,11.80
2022-09-28T06:14:33.643Z,11.80
2022-09-28T06:17:01.789Z,11.80
2022-09-28T06:19:29.650Z,11.80
2022-09-28T06:22:08.939Z,11.80
2022-09-28T06:24:45.221Z,11.70
2022-09-28T06:27:13.474Z,11.70
2022-09-28T06:29:41.131Z,11.70
2022-09-28T06:32:09.135Z,11.70
2022-09-28T06:34:39.081Z,11.80
2022-09-28T06:37:06.653Z,11.80
2022-09-28T06:39:34.322Z,11.80
2022-09-28T06:42:04.026Z,11.80
2022-09-28T06:44:52.196Z,11.70
2022-09-28T06:47:27.027Z,11.70
2022-09-28T06:50:34.288Z,11.80
2022-09-28T06:53:14.677Z,11.80
2022-09-28T06:55:57.654Z,11.80
2022-09-28T06:58:28.547Z,11.80
2022-09-28T07:00:59.530Z,11.80
2022-09-28T07:03:29.868Z,11.80
2022-09-28T07:06:20.821Z,11.80
2022-09-28T07:09:30.711Z,11.90
2022-09-28T07:12:20.290Z,11.90
2022-09-28T07:15:09.313Z,11.90
2022-09-28T07:17:48.731Z,11.90
2022-09-28T07:20:22.816Z,11.90
2022-09-28T07:22:59.328Z,11.90
2022-09-28T07:25:37.473Z,12.00
2022-09-28T07:28:24.696Z,12.00
2022-09-28T07:31:12.210Z,12.10
2022-09-28T07:33:56.242Z,12.20
2022-09-28T07:36:35.370Z,12.20
2022-09-28T07:39:04.033Z,12.20
2022-09-28T07:41:32.723Z,12.30
2022-09-28T07:44:06.657Z,12.30
2022-09-28T07:46:37.350Z,12.40
2022-09-28T07:49:12.486Z,12.40
2022-09-28T07:51:59.283Z,12.40
2022-09-28T07:54:31.467Z,12.50
2022-09-28T07:57:16.821Z,12.50
2022-09-28T08:00:14.315Z,12.50
2022-09-28T08:02:42.315Z,12.60
2022-09-28T08:05:10.182Z,12.50
2022-09-28T08:07:42.858Z,12.60
2022-09-28T08:10:11.855Z,12.60
2022-09-28T08:13:03.045Z,12.60
2022-09-28T08:16:05.354Z,12.60
2022-09-28T08:18:38.951Z,12.60
2022-09-28T08:21:25.673Z,12.70
2022-09-28T08:23:53.361Z,12.70
2022-09-28T08:26:21.893Z,12.80
2022-09-28T08:28:50.382Z,12.80
2022-09-28T08:31:37.133Z,12.80
2022-09-28T08:34:22.708Z,12.90
2022-09-28T08:37:07.298Z,12.90
2022-09-28T08:40:17.201Z,12.90
2022-09-28T08:43:39.712Z,12.90
2022-09-28T08:46:42.712Z,12.80
2022-09-28T08:49:38.748Z,12.90
2022-09-28T08:52:31.115Z,12.90
2022-09-28T08:55:38.714Z,12.90
2022-09-28T08:58:23.044Z,13.00
2022-09-28T09:00:53.155Z,13.10
2022-09-28T09:03:35.984Z,13.10
2022-09-28T09:06:33.472Z,13.30
2022-09-28T09:09:40.050Z,13.30
2022-09-28T09:12:36.911Z,13.40
2022-09-28T09:15:18.857Z,13.40
2022-09-28T09:18:01.979Z,13.50
2022-09-28T09:20:51.896Z,13.50
2022-09-28T09:24:06.846Z,13.60
2022-09-28T09:26:39.382Z,13.60
2022-09-28T09:29:42.777Z,13.50
2022-09-28T09:32:21.629Z,13.50
2022-09-28T09:34:56.179Z,13.50
2022-09-28T09:37:42.278Z,13.40
2022-09-28T09:41:05.040Z,13.40
2022-09-28T09:44:26.925Z,13.30
2022-09-28T09:47:08.316Z,13.30
2022-09-28T09:50:05.487Z,13.40
2022-09-28T09:52:55.863Z,13.50
2022-09-28T09:55:33.054Z,13.50
2022-09-28T09:58:29.842Z,13.50
2022-09-28T10:01:34.839Z,13.70
2022-09-28T10:04:37.781Z,13.60
2022-09-28T10:07:51.849Z,13.70
2022-09-28T10:10:27.613Z,13.70
2022-09-28T10:13:01.805Z,13.70
2022-09-28T10:15:35.547Z,13.70
2022-09-28T10:18:14.859Z,13.60
2022-09-28T10:21:06.219Z,13.60
2022-09-28T10:23:59.905Z,13.60
2022-09-28T10:26:42.280Z,13.60
2022-09-28T10:29:20.790Z,13.70
2022-09-28T10:31:52.921Z,13.70
2022-09-28T10:34:28.482Z,13.70
2022-09-28T10:37:09.476Z,13.80
2022-09-28T10:39:59.639Z,13.80
2022-09-28T10:42:33.963Z,13.80
2022-09-28T10:45:28.201Z,13.80
2022-09-28T10:48:01.192Z,13.80
2022-09-28T10:50:28.990Z,13.70
2022-09-28T10:53:18.099Z,13.70
2022-09-28T10:56:20.620Z,13.70
2022-09-28T10:58:52.335Z,13.60
2022-09-28T11:01:40.191Z,13.70
2022-09-28T11:04:19.322Z,13.70
2022-09-28T11:06:48.072Z,13.80
2022-09-28T11:09:32.803Z,13.80
2022-09-28T11:12:13.642Z,13.80
2022-09-28T11:14:46.624Z,13.70
2022-09-28T11:17:35.615Z,13.80
2022-09-28T11:20:33.204Z,13.80
2022-09-28T11:23:30.370Z,13.70
2022-09-28T11:26:08.254Z,13.80
2022-09-28T11:28:41.412Z,13.90
2022-09-28T11:31:27.234Z,14.00
2022-09-28T11:34:06.251Z,14.00
2022-09-28T11:37:19.727Z,14.10
2022-09-28T11:40:02.525Z,14.10
2022-09-28T11:42:56.476Z,14.00
2022-09-28T11:45:33.016Z,14.10
2022-09-28T11:48:15.895Z,14.10
2022-09-28T11:50:45.775Z,14.10
2022-09-28T11:53:20.438Z,14.10
2022-09-28T11:56:09.211Z,14.20
2022-09-28T11:58:42.981Z,14.10
2022-09-28T12:01:38.839Z,14.10
2022-09-28T12:04:33.495Z,14.10
2022-09-28T12:07:25.981Z,14.10
2022-09-28T12:10:29.205Z,14.10
2022-09-28T12:13:01.771Z,14.20
2022-09-28T12:16:11.539Z,14.20
2022-09-28T12:18:44.832Z,14.30
2022-09-28T12:21:25.588Z,14.50
2022-09-28T12:24:28.280Z,14.60
2022-09-28T12:27:03.468Z,14.60
2022-09-28T12:29:57.419Z,14.70
2022-09-28T12:32:41.105Z,14.70
2022-09-28T12:35:28.718Z,14.70
2022-09-28T12:38:17.475Z,14.70
2022-09-28T12:41:02.311Z,14.70
2022-09-28T12:43:37.854Z,14.70
2022-09-28T12:46:34.972Z,14.60
2022-09-28T12:55:37.203Z,14.50
2022-09-28T12:58:34.001Z,14.50
2022-09-28T13:01:04.846Z,14.50
2022-09-28T13:03:51.730Z,14.40
2022-09-28T13:06:54.719Z,14.40
2022-09-28T13:09:27.989Z,14.50
2022-09-28T13:12:21.636Z,14.50
2022-09-28T13:15:34.244Z,14.50
2022-09-28T13:18:12.182Z,14.50
2022-09-28T13:20:55.541Z,14.40
2022-09-28T13:23:29.330Z,14.40
2022-09-28T13:26:14.113Z,14.40
2022-09-28T13:28:43.661Z,14.30
2022-09-28T13:31:12.704Z,14.40
2022-09-28T13:33:44.082Z,14.30
2022-09-28T13:36:29.095Z,14.30
2022-09-28T13:38:59.643Z,14.20
2022-09-28T13:41:33.561Z,14.20
2022-09-28T13:44:13.401Z,14.20
2022-09-28T13:46:50.251Z,14.10
2022-09-28T13:49:52.441Z,14.10
2022-09-28T13:52:31.098Z,14.10
2022-09-28T13:55:13.674Z,14.00
2022-09-28T13:57:41.871Z,14.00
2022-09-28T14:00:32.293Z,14.00
2022-09-28T14:03:13.462Z,14.00
2022-09-28T14:05:52.676Z,14.00
2022-09-28T14:09:05.884Z,14.00
2022-09-28T14:12:01.775Z,14.00
2022-09-28T14:14:50.632Z,13.90
2022-09-28T14:17:23.912Z,13.90
2022-09-28T14:20:05.395Z,13.90
2022-09-28T14:22:51.809Z,13.90
2022-09-28T14:25:32.314Z,13.90
2022-09-28T14:28:36.982Z,13.80
2022-09-28T14:31:22.367Z,13.80
2022-09-28T14:34:24.103Z,13.80
2022-09-28T14:37:10.751Z,13.80
2022-09-28T14:40:01.707Z,13.80
2022-09-28T14:42:30.919Z,13.80
2022-09-28T14:45:06.796Z,13.80
2022-09-28T14:47:38.287Z,13.80
2022-09-28T14:50:26.515Z,13.80
2022-09-28T14:53:05.104Z,13.80
2022-09-28T14:55:41.312Z,13.80
2022-09-28T14:58:22.924Z,13.80
2022-09-28T15:01:00.220Z,13.80
2022-09-28T15:03:31.227Z,13.80
2022-09-28T15:05:59.585Z,13.70
2022-09-28T15:08:47.605Z,13.70
2022-09-28T15:11:23.770Z,13.70
2022-09-28T15:14:04.740Z,13.70
2022-09-28T15:16:33.061Z,13.70
2022-09-28T15:19:22.961Z,13.60
2022-09-28T15:21:51.412Z,13.70
2022-09-28T15:24:33.715Z,13.60
2022-09-28T15:27:15.836Z,13.60
2022-09-28T15:30:01.143Z,13.60
2022-09-28T15:32:32.478Z,13.60
2022-09-28T15:35:17.349Z,13.50
2022-09-28T15:37:45.327Z,13.50
2022-09-28T15:40:16.975Z,13.50
2022-09-28T15:42:47.442Z,13.50
2022-09-28T15:45:26.827Z,13.40
2022-09-28T15:48:17.958Z,13.40
2022-09-28T15:51:06.258Z,13.30
2022-09-28T15:53:34.204Z,13.30
2022-09-28T15:56:10.124Z,13.20
2022-09-28T15:58:38.595Z,13.20
2022-09-28T16:01:51.135Z,13.10
2022-09-28T16:04:38.155Z,13.10
2022-09-28T16:07:19.828Z,13.10
2022-09-28T16:09:58.695Z,13.00
2022-09-28T16:12:54.223Z,12.90
2022-09-28T16:15:34.576Z,12.90
2022-09-28T16:18:25.672Z,12.90
2022-09-28T16:20:56.394Z,12.80
2022-09-28T16:23:31.585Z,12.80
2022-09-28T16:26:09.416Z,12.80
2022-09-28T16:28:40.093Z,12.70
2022-09-28T16:31:32.602Z,12.70
2022-09-28T16:34:18.084Z,12.60
2022-09-28T16:36:48.359Z,12.50
2022-09-28T16:39:17.610Z,12.50
2022-09-28T16:41:53.052Z,12.40
2022-09-28T16:44:35.197Z,12.40
2022-09-28T16:47:02.890Z,12.40
2022-09-28T16:49:32.358Z,12.30
2022-09-28T16:52:01.401Z,12.40
2022-09-28T16:54:48.098Z,12.30
2022-09-28T16:57:17.464Z,12.30
2022-09-28T16:59:45.149Z,12.30
2022-09-28T17:05:12.993Z,12.20
2022-09-28T17:07:40.821Z,12.20
2022-09-28T17:10:55.778Z,12.10
2022-09-28T17:13:34.018Z,12.10
2022-09-28T17:16:11.317Z,12.10
2022-09-28T17:18:40.142Z,12.00
2022-09-28T17:21:13.278Z,12.00
2022-09-28T17:23:41.755Z,12.00
2022-09-28T17:26:31.391Z,12.00
2022-09-28T17:28:59.795Z,11.90
2022-09-28T17:31:28.999Z,11.90
2022-09-28T17:33:56.767Z,11.90
2022-09-28T17:36:26.114Z,11.80
2022-09-28T17:38:54.012Z,11.80
2022-09-28T17:41:21.680Z,11.80
2022-09-28T17:43:50.527Z,11.70
2022-09-28T17:46:23.016Z,11.70
2022-09-28T17:48:50.897Z,11.70
2022-09-28T17:51:18.600Z,11.60
2022-09-28T17:53:46.208Z,11.60
2022-09-28T17:56:17.304Z,11.60
2022-09-28T17:58:44.850Z,11.60
2022-09-28T18:01:12.707Z,11.50
2022-09-28T18:03:41.217Z,11.40
2022-09-28T18:06:14.747Z,11.40
2022-09-28T18:08:43.852Z,11.40
2022-09-28T18:11:13.830Z,11.30
2022-09-28T18:13:41.401Z,11.30
2022-09-28T18:16:09.617Z,11.30
2022-09-28T18:18:39.913Z,11.30
2022-09-28T18:21:08.373Z,11.40
2022-09-28T18:23:37.777Z,11.30
2022-09-28T18:26:12.728Z,11.30
2022-09-28T18:28:40.973Z,11.40
2022-09-28T18:31:10.303Z,11.30
2022-09-28T18:33:38.891Z,11.30
2022-09-28T18:36:07.614Z,11.30
2022-09-28T18:38:36.449Z,11.30
2022-09-28T18:41:14.572Z,11.30
2022-09-28T18:43:48.118Z,11.40
2022-09-28T18:46:18.479Z,11.40
2022-09-28T18:48:47.887Z,11.40
2022-09-28T18:51:19.669Z,11.40
2022-09-28T18:53:48.227Z,11.40
2022-09-28T18:56:18.455Z,11.40
2022-09-28T18:58:47.897Z,11.40
2022-09-28T19:01:30.080Z,11.50
2022-09-28T19:04:00.446Z,11.40
2022-09-28T19:06:29.415Z,11.50
2022-09-28T19:08:57.654Z,11.50
2022-09-28T19:11:25.953Z,11.50
2022-09-28T19:13:55.075Z,11.50
2022-09-28T19:16:28.921Z,11.50
2022-09-28T19:19:00.055Z,11.50
2022-09-28T19:21:27.613Z,11.50
2022-09-28T19:23:56.782Z,11.50
2022-09-28T19:26:27.898Z,11.50
2022-09-28T19:28:58.761Z,11.50
2022-09-28T19:31:29.369Z,11.40
2022-09-28T19:34:00.425Z,11.50
2022-09-28T19:36:28.835Z,11.50
2022-09-28T19:38:58.250Z,11.50
2022-09-28T19:41:49.614Z,11.50
2022-09-28T19:44:26.966Z,11.50
2022-09-28T19:47:07.524Z,11.50
2022-09-28T19:49:37.481Z,11.50
2022-09-28T19:52:16.051Z,11.50
2022-09-28T19:54:56.768Z,11.40
2022-09-28T19:57:27.923Z,11.40
2022-09-28T20:00:01.119Z,11.40
2022-09-28T20:02:39.976Z,11.40
2022-09-28T20:05:07.987Z,11.50
2022-09-28T20:07:36.340Z,11.50
2022-09-28T20:10:04.531Z,11.50
2022-09-28T20:12:32.441Z,11.50
2022-09-28T20:15:00.108Z,11.50
2022-09-28T20:17:28.113Z,11.50
2022-09-28T20:19:56.009Z,11.50
2022-09-28T20:22:23.752Z,11.50
2022-09-28T20:24:53.205Z,11.50
2022-09-28T20:27:26.049Z,11.50
2022-09-28T20:29:53.933Z,11.50
2022-09-28T20:32:21.462Z,11.50
2022-09-28T20:34:51.656Z,11.50
2022-09-28T20:37:19.480Z,11.50
2022-09-28T20:39:47.317Z,11.60
2022-09-28T20:42:15.896Z,11.60
2022-09-28T20:44:44.140Z,11.60
2022-09-28T20:47:11.752Z,11.60
2022-09-28T20:49:39.661Z,11.60
2022-09-28T20:52:07.433Z,11.60
2022-09-28T20:54:35.029Z,11.60
2022-09-28T20:57:02.854Z,11.60
2022-09-28T20:59:31.575Z,11.60
2022-09-28T21:01:59.370Z,11.60
2022-09-28T21:04:27.349Z,11.60
2022-09-28T21:06:55.818Z,11.70
2022-09-28T21:09:23.379Z,11.60
2022-09-28T21:11:52.814Z,11.70
2022-09-28T21:14:20.986Z,11.60
2022-09-28T21:16:48.800Z,11.60
2022-09-28T21:19:16.641Z,11.60
2022-09-28T21:21:44.268Z,11.60
2022-09-28T21:24:12.075Z,11.60
2022-09-28T21:26:39.947Z,11.60
2022-09-28T21:29:11.541Z,11.60
2022-09-28T21:31:45.884Z,11.60
2022-09-28T21:34:18.714Z,11.60
2022-09-28T21:36:48.202Z,11.60
2022-09-28T21:39:16.200Z,11.50
2022-09-28T21:41:44.207Z,11.50
2022-09-28T21:44:12.230Z,11.50
2022-09-28T21:46:40.158Z,11.60
2022-09-28T21:49:08.879Z,11.50
2022-09-28T21:51:37.821Z,11.60
2022-09-28T21:54:05.915Z,11.60
2022-09-28T21:56:33.502Z,11.50
2022-09-28T21:59:04.204Z,11.50
2022-09-28T22:01:32.232Z,11.50
2022-09-28T22:04:00.159Z,11.50
2022-09-28T22:06:28.361Z,11.50
2022-09-28T22:08:56.536Z,11.50
2022-09-28T22:11:27.264Z,11.50
2022-09-28T22:13:57.951Z,11.50
2022-09-28T22:16:29.313Z,11.50
2022-09-28T22:18:57.333Z,11.50
2022-09-28T22:21:33.523Z,11.50
2022-09-28T22:24:04.548Z,11.50
2022-09-28T22:26:34.610Z,11.40
2022-09-28T22:29:05.645Z,11.50
2022-09-28T22:31:37.077Z,11.50
2022-09-28T22:34:06.437Z,11.40
2022-09-28T22:36:34.640Z,11.50
2022-09-28T22:39:02.535Z,11.50
2022-09-28T22:41:30.607Z,11.50
2022-09-28T22:43:59.539Z,11.40
2022-09-28T22:46:28.922Z,11.50
2022-09-28T22:48:58.988Z,11.50
2022-09-28T22:51:29.122Z,11.40
2022-09-28T22:53:57.172Z,11.50
2022-09-28T22:56:25.547Z,11.40
2022-09-28T22:58:53.299Z,11.40
2022-09-28T23:01:23.433Z,11.40
2022-09-28T23:03:52.942Z,11.40
2022-09-28T23:06:22.629Z,11.40
2022-09-28T23:08:51.542Z,11.40
2022-09-28T23:11:20.120Z,11.40
2022-09-28T23:13:55.763Z,11.50
2022-09-28T23:16:25.900Z,11.50
2022-09-28T23:18:55.581Z,11.40
2022-09-28T23:21:25.528Z,11.50
2022-09-28T23:23:58.853Z,11.50
2022-09-28T23:26:29.097Z,11.40
2022-09-28T23:28:57.656Z,11.50
2022-09-28T23:31:28.119Z,11.40
2022-09-28T23:34:04.665Z,11.40
2022-09-28T23:36:33.761Z,11.40
2022-09-28T23:39:01.829Z,11.40
2022-09-28T23:41:29.618Z,11.40
2022-09-28T23:43:57.820Z,11.40
2022-09-28T23:46:25.699Z,11.40
2022-09-28T23:48:53.459Z,11.40
2022-09-28T23:51:21.427Z,11.30
2022-09-28T23:53:49.140Z,11.30
2022-09-28T23:56:19.622Z,11.30
2022-09-28T23:58:58.252Z,11.20
